createdAt,value
2023-03-20T00:02:09.657Z,21.90
2023-03-20T00:04:39.074Z,22.23
2023-03-20T00:07:10.677Z,22.03
2023-03-20T00:09:39.346Z,21.77
2023-03-20T00:12:11.157Z,21.76
2023-03-20T00:14:39.710Z,22.33
2023-03-20T00:17:11.772Z,21.64
2023-03-20T00:19:40.330Z,22.03
2023-03-20T00:22:10.251Z,22.03
2023-03-20T00:24:38.884Z,22.03
2023-03-20T00:27:10.988Z,21.86
2023-03-20T00:29:39.470Z,22.54
2023-03-20T00:32:13.227Z,21.90
2023-03-20T00:34:42.079Z,22.37
2023-03-20T00:37:11.822Z,22.30
2023-03-20T00:39:40.461Z,22.12
2023-03-20T00:42:15.000Z,21.83
2023-03-20T00:44:49.809Z,22.04
2023-03-20T00:47:20.081Z,21.87
2023-03-20T00:49:50.809Z,22.30
2023-03-20T00:52:19.602Z,22.03
2023-03-20T00:54:48.227Z,22.10
2023-03-20T00:57:21.682Z,21.79
2023-03-20T00:59:53.284Z,21.84
2023-03-20T01:02:23.215Z,22.13
2023-03-20T01:04:52.495Z,22.37
2023-03-20T01:07:20.806Z,22.34
2023-03-20T01:09:49.350Z,22.11
2023-03-20T01:12:18.885Z,21.86
2023-03-20T01:14:47.844Z,22.01
2023-03-20T01:17:19.575Z,21.90
2023-03-20T01:19:48.657Z,21.87
2023-03-20T01:22:18.048Z,21.84
2023-03-20T01:24:47.428Z,21.89
2023-03-20T01:27:17.218Z,21.95
2023-03-20T01:29:47.758Z,21.89
2023-03-20T01:32:17.983Z,21.84
2023-03-20T01:34:47.736Z,21.94
2023-03-20T01:37:20.299Z,21.74
2023-03-20T01:39:48.948Z,22.04
2023-03-20T01:42:18.308Z,21.90
2023-03-20T01:44:48.752Z,21.93
2023-03-20T01:47:19.238Z,22.03
2023-03-20T01:50:22.602Z,21.47
2023-03-20T01:52:52.960Z,22.16
2023-03-20T01:55:22.182Z,21.74
2023-03-20T01:57:52.282Z,21.73
2023-03-20T02:00:24.049Z,21.95
2023-03-20T02:02:52.080Z,21.18
2023-03-20T02:05:22.380Z,21.62
2023-03-20T02:07:55.812Z,21.67
2023-03-20T02:10:24.440Z,21.67
2023-03-20T02:12:53.572Z,21.97
2023-03-20T02:15:23.400Z,21.60
2023-03-20T02:17:51.598Z,21.84
2023-03-20T02:20:31.835Z,21.48
2023-03-20T02:23:53.510Z,21.38
2023-03-20T02:26:44.279Z,21.08
2023-03-20T02:30:01.371Z,21.43
2023-03-20T02:33:26.454Z,21.49
2023-03-20T02:36:43.414Z,21.38
2023-03-20T02:39:36.842Z,21.71
2023-03-20T02:42:11.375Z,21.85
2023-03-20T02:44:45.186Z,22.08
2023-03-20T02:47:16.567Z,22.37
2023-03-20T02:49:54.840Z,22.36
2023-03-20T02:52:28.013Z,22.47
2023-03-20T02:55:07.214Z,22.02
2023-03-20T02:57:43.070Z,22.48
2023-03-20T03:00:14.891Z,22.62
2023-03-20T03:02:44.358Z,22.02
2023-03-20T03:05:16.766Z,22.35
2023-03-20T03:07:47.092Z,22.51
2023-03-20T03:10:19.987Z,22.64
2023-03-20T03:12:49.314Z,22.54
2023-03-20T03:15:22.271Z,22.72
2023-03-20T03:17:50.755Z,22.66
2023-03-20T03:20:23.226Z,22.39
2023-03-20T03:22:51.928Z,22.54
2023-03-20T03:25:25.609Z,22.39
2023-03-20T03:28:02.404Z,22.38
2023-03-20T03:30:33.052Z,22.61
2023-03-20T03:33:11.178Z,22.07
2023-03-20T03:35:40.346Z,22.42
2023-03-20T03:38:24.320Z,22.13
2023-03-20T03:41:02.367Z,22.07
2023-03-20T03:43:33.390Z,22.04
2023-03-20T03:46:06.156Z,22.44
2023-03-20T03:48:37.216Z,22.61
2023-03-20T03:51:09.188Z,22.36
2023-03-20T03:53:41.367Z,22.34
2023-03-20T03:56:13.356Z,22.14
2023-03-20T03:58:43.756Z,22.43
2023-03-20T04:01:14.081Z,22.41
2023-03-20T04:03:44.245Z,22.74
2023-03-20T04:06:13.709Z,22.46
2023-03-20T04:08:42.337Z,23.15
2023-03-20T04:11:16.045Z,22.65
2023-03-20T04:13:44.293Z,22.79
2023-03-20T04:16:15.276Z,22.68
2023-03-20T04:18:43.751Z,22.75
2023-03-20T04:21:12.662Z,22.80
2023-03-20T04:23:40.897Z,23.01
2023-03-20T04:26:09.551Z,22.90
2023-03-20T04:28:39.298Z,23.12
2023-03-20T04:31:08.469Z,23.18
2023-03-20T04:33:36.717Z,22.89
2023-03-20T04:36:06.460Z,23.19
2023-03-20T04:38:34.896Z,23.28
2023-03-20T04:41:03.678Z,23.58
2023-03-20T04:43:31.998Z,23.41
2023-03-20T04:46:01.942Z,23.26
2023-03-20T04:48:30.448Z,23.41
2023-03-20T04:50:58.968Z,23.77
2023-03-20T04:53:27.385Z,23.57
2023-03-20T04:55:55.831Z,23.94
2023-03-20T04:58:24.116Z,24.10
2023-03-20T05:00:52.759Z,24.14
2023-03-20T05:03:24.033Z,24.18
2023-03-20T05:05:52.772Z,24.75
2023-03-20T05:08:21.231Z,24.58
2023-03-20T05:10:49.733Z,24.54
2023-03-20T05:13:17.933Z,24.63
2023-03-20T05:15:46.562Z,24.79
2023-03-20T05:18:14.792Z,24.86
2023-03-20T05:20:44.736Z,24.55
2023-03-20T05:23:13.024Z,24.59
2023-03-20T05:25:41.726Z,24.55
2023-03-20T05:28:09.989Z,24.47
2023-03-20T05:30:39.941Z,24.75
2023-03-20T05:33:08.466Z,24.57
2023-03-20T05:35:37.349Z,24.54
2023-03-20T05:38:07.245Z,24.11
2023-03-20T05:40:35.961Z,23.67
2023-03-20T05:43:05.798Z,23.50
2023-03-20T05:45:34.812Z,23.12
2023-03-20T05:48:03.458Z,23.05
2023-03-20T05:50:32.137Z,22.41
2023-03-20T05:53:01.014Z,21.97
2023-03-20T05:55:31.170Z,21.21
2023-03-20T05:57:59.396Z,20.51
2023-03-20T06:00:28.209Z,20.25
2023-03-20T06:02:57.244Z,20.01
2023-03-20T06:05:26.187Z,19.94
2023-03-20T06:07:54.578Z,19.62
2023-03-20T06:10:23.132Z,18.99
2023-03-20T06:12:52.859Z,19.30
2023-03-20T06:15:21.923Z,19.65
2023-03-20T06:17:50.516Z,19.82
2023-03-20T06:20:19.311Z,20.13
2023-03-20T06:22:47.853Z,20.80
2023-03-20T06:25:16.712Z,21.18
2023-03-20T06:27:45.226Z,21.70
2023-03-20T06:30:16.276Z,21.85
2023-03-20T06:32:44.692Z,22.09
2023-03-20T06:35:13.744Z,22.33
2023-03-20T06:37:42.312Z,22.19
2023-03-20T06:40:11.928Z,22.43
2023-03-20T06:42:40.143Z,22.45
2023-03-20T06:45:09.493Z,23.03
2023-03-20T06:47:39.091Z,22.97
2023-03-20T06:50:08.604Z,22.96
2023-03-20T06:52:36.878Z,22.90
2023-03-20T06:55:06.076Z,22.73
2023-03-20T06:57:34.670Z,22.77
2023-03-20T07:00:04.536Z,22.62
2023-03-20T07:02:33.514Z,22.23
2023-03-20T07:05:03.667Z,21.98
2023-03-20T07:07:32.706Z,21.81
2023-03-20T07:10:01.715Z,21.81
2023-03-20T07:12:29.982Z,22.36
2023-03-20T07:14:58.679Z,22.78
2023-03-20T07:17:27.176Z,23.13
2023-03-20T07:19:55.945Z,22.84
2023-03-20T07:22:27.307Z,22.88
2023-03-20T07:24:55.901Z,23.24
2023-03-20T07:27:24.239Z,23.69
2023-03-20T07:29:52.767Z,23.78
2023-03-20T07:32:21.185Z,24.38
2023-03-20T07:34:50.417Z,24.39
2023-03-20T07:37:18.851Z,24.50
2023-03-20T07:39:48.877Z,24.48
2023-03-20T07:42:17.819Z,24.51
2023-03-20T07:44:46.384Z,24.97
2023-03-20T07:47:14.744Z,25.03
2023-03-20T07:49:43.378Z,24.92
2023-03-20T07:52:11.798Z,25.31
2023-03-20T07:54:40.681Z,25.33
2023-03-20T07:57:10.334Z,25.21
2023-03-20T07:59:39.010Z,25.74
2023-03-20T08:02:07.364Z,25.96
2023-03-20T08:04:36.654Z,26.35
2023-03-20T08:07:05.073Z,26.39
2023-03-20T08:09:33.939Z,26.84
2023-03-20T08:12:02.327Z,27.19
2023-03-20T08:14:32.682Z,26.67
2023-03-20T08:17:13.829Z,26.80
2023-03-20T08:19:43.414Z,26.41
2023-03-20T08:22:11.682Z,26.22
2023-03-20T08:24:40.261Z,25.86
2023-03-20T08:27:08.612Z,25.27
2023-03-20T08:29:38.781Z,24.55
2023-03-20T08:32:07.652Z,24.58
2023-03-20T08:34:36.276Z,24.63
2023-03-20T08:37:04.922Z,24.56
2023-03-20T08:39:34.491Z,24.83
2023-03-20T08:42:03.165Z,24.51
2023-03-20T08:44:31.750Z,24.64
2023-03-20T08:47:01.401Z,24.33
2023-03-20T08:49:29.959Z,24.62
2023-03-20T08:51:58.305Z,23.72
2023-03-20T08:54:27.094Z,23.30
2023-03-20T08:56:55.358Z,23.27
2023-03-20T08:59:24.022Z,23.07
2023-03-20T09:01:52.269Z,22.94
2023-03-20T09:04:22.390Z,21.98
2023-03-20T09:06:51.799Z,22.00
2023-03-20T09:09:22.048Z,21.17
2023-03-20T09:11:50.694Z,19.87
2023-03-20T09:14:19.429Z,20.91
2023-03-20T09:16:47.830Z,20.72
2023-03-20T09:19:19.979Z,20.17
2023-03-20T09:21:49.710Z,20.43
2023-03-20T09:24:18.418Z,21.29
2023-03-20T09:26:46.750Z,20.57
2023-03-20T09:29:15.604Z,19.99
2023-03-20T09:31:43.938Z,20.42
2023-03-20T09:34:12.623Z,20.87
2023-03-20T09:36:40.919Z,21.16
2023-03-20T09:39:11.226Z,21.25
2023-03-20T09:41:53.225Z,21.86
2023-03-20T09:44:38.087Z,22.28
2023-03-20T09:47:19.675Z,22.33
2023-03-20T09:49:58.700Z,22.19
2023-03-20T09:52:31.612Z,22.11
2023-03-20T09:55:04.017Z,22.59
2023-03-20T09:57:37.233Z,22.65
2023-03-20T10:00:10.473Z,23.09
2023-03-20T10:02:43.446Z,23.59
2023-03-20T10:05:19.376Z,24.04
2023-03-20T10:07:47.924Z,24.36
2023-03-20T10:10:20.725Z,24.48
2023-03-20T10:12:56.300Z,24.45
2023-03-20T10:15:34.844Z,23.92
2023-03-20T10:18:08.435Z,24.01
2023-03-20T10:20:39.552Z,24.38
2023-03-20T10:23:09.368Z,24.32
2023-03-20T10:25:44.393Z,24.31
2023-03-20T10:28:14.210Z,24.04
2023-03-20T10:30:52.411Z,24.21
2023-03-20T10:33:28.396Z,24.30
2023-03-20T10:36:06.438Z,24.60
2023-03-20T10:38:39.778Z,24.50
2023-03-20T10:41:13.864Z,24.74
2023-03-20T10:43:43.516Z,24.69
2023-03-20T10:46:14.688Z,24.58
2023-03-20T10:48:46.096Z,24.20
2023-03-20T10:51:16.665Z,23.63
2023-03-20T10:53:48.509Z,22.30
2023-03-20T10:56:22.763Z,17.78
2023-03-20T10:58:55.938Z,14.15
2023-03-20T11:01:24.534Z,12.02
2023-03-20T11:03:52.918Z,10.48
2023-03-20T11:06:24.116Z,9.99
2023-03-20T11:08:54.388Z,10.96
2023-03-20T11:11:25.990Z,11.53
2023-03-20T11:13:54.483Z,13.03
2023-03-20T11:16:25.577Z,14.62
2023-03-20T11:18:55.161Z,15.88
2023-03-20T11:21:26.302Z,17.03
2023-03-20T11:23:54.590Z,17.28
2023-03-20T11:26:36.161Z,18.50
2023-03-20T11:29:07.507Z,19.25
2023-03-20T11:31:37.590Z,19.49
2023-03-20T11:34:21.536Z,17.98
2023-03-20T11:37:09.829Z,13.72
2023-03-20T11:39:41.388Z,12.11
2023-03-20T11:42:24.770Z,11.85
2023-03-20T11:44:59.355Z,12.80
2023-03-20T11:47:29.385Z,13.61
2023-03-20T11:50:00.091Z,14.12
2023-03-20T11:52:31.189Z,14.10
2023-03-20T11:55:00.927Z,14.40
2023-03-20T11:57:36.615Z,14.22
2023-03-20T12:00:16.844Z,14.84
2023-03-20T12:02:46.333Z,15.55
2023-03-20T12:05:30.092Z,15.47
2023-03-20T12:07:59.619Z,16.43
2023-03-20T12:10:32.108Z,17.19
2023-03-20T12:13:05.300Z,17.46
2023-03-20T12:15:35.995Z,17.89
2023-03-20T12:18:08.197Z,18.57
2023-03-20T12:20:39.692Z,19.25
2023-03-20T12:23:14.312Z,19.12
2023-03-20T12:25:49.447Z,18.96
2023-03-20T12:28:25.626Z,19.03
2023-03-20T12:31:05.966Z,19.50
2023-03-20T12:33:44.576Z,20.02
2023-03-20T12:36:16.640Z,20.52
2023-03-20T12:38:46.093Z,20.80
2023-03-20T12:41:17.064Z,21.31
2023-03-20T12:44:06.961Z,21.45
2023-03-20T12:46:42.276Z,21.77
2023-03-20T12:49:18.103Z,22.34
2023-03-20T12:51:53.761Z,22.75
2023-03-20T12:54:31.443Z,22.44
2023-03-20T12:57:07.369Z,22.46
2023-03-20T12:59:47.628Z,22.34
2023-03-20T13:02:28.333Z,22.01
2023-03-20T13:05:05.602Z,21.87
2023-03-20T13:07:46.632Z,21.77
2023-03-20T13:10:21.890Z,21.49
2023-03-20T13:13:05.693Z,21.27
2023-03-20T13:15:48.328Z,21.40
2023-03-20T13:18:21.155Z,21.38
2023-03-20T13:20:52.180Z,21.58
2023-03-20T13:23:27.584Z,21.07
2023-03-20T13:26:09.079Z,21.75
2023-03-20T13:28:42.608Z,21.81
2023-03-20T13:31:22.445Z,22.11
2023-03-20T13:33:55.046Z,22.12
2023-03-20T13:36:35.777Z,22.23
2023-03-20T13:39:07.792Z,22.62
2023-03-20T13:41:37.822Z,22.33
2023-03-20T13:44:07.520Z,22.76
2023-03-20T13:46:40.258Z,22.70
2023-03-20T13:49:15.433Z,22.69
2023-03-20T13:51:49.327Z,22.90
2023-03-20T13:54:40.162Z,22.79
2023-03-20T13:57:16.081Z,23.46
2023-03-20T14:00:00.708Z,23.23
2023-03-20T14:02:36.806Z,23.25
2023-03-20T14:05:07.750Z,23.75
2023-03-20T14:07:38.888Z,23.34
2023-03-20T14:10:35.334Z,23.02
2023-03-20T14:13:08.174Z,23.33
2023-03-20T14:15:44.326Z,23.83
2023-03-20T14:18:19.310Z,24.21
2023-03-20T14:20:56.467Z,24.16
2023-03-20T14:23:45.400Z,23.93
2023-03-20T14:26:25.834Z,23.78
2023-03-20T14:29:01.348Z,24.09
2023-03-20T14:31:42.530Z,23.83
2023-03-20T14:34:32.321Z,23.91
2023-03-20T14:37:06.115Z,24.46
2023-03-20T14:39:48.186Z,24.29
2023-03-20T14:42:37.760Z,24.05
2023-03-20T14:45:32.071Z,24.51
2023-03-20T14:48:13.129Z,25.00
2023-03-20T14:50:54.908Z,25.57
2023-03-20T14:53:27.425Z,27.13
2023-03-20T14:56:08.426Z,27.60
2023-03-20T14:58:59.428Z,28.12
2023-03-20T15:01:49.435Z,28.41
2023-03-20T15:04:37.412Z,29.88
2023-03-20T15:07:16.212Z,30.24
2023-03-20T15:09:47.458Z,30.84
2023-03-20T15:12:19.532Z,30.54
2023-03-20T15:14:57.203Z,30.06
2023-03-20T15:17:28.477Z,30.36
2023-03-20T15:20:06.674Z,30.02
2023-03-20T15:22:40.296Z,30.28
2023-03-20T15:25:22.217Z,30.25
2023-03-20T15:27:54.271Z,30.97
2023-03-20T15:30:26.190Z,30.62
2023-03-20T15:32:57.338Z,30.68
2023-03-20T15:35:28.120Z,30.64
2023-03-20T15:38:03.513Z,30.43
2023-03-20T15:40:47.639Z,30.18
2023-03-20T15:43:23.434Z,30.23
2023-03-20T15:46:17.381Z,29.99
2023-03-20T15:48:51.490Z,29.92
2023-03-20T15:51:28.916Z,30.00
2023-03-20T15:54:08.131Z,30.29
2023-03-20T15:56:43.060Z,30.63
2023-03-20T15:59:15.787Z,30.57
2023-03-20T16:01:54.215Z,30.40
2023-03-20T16:04:33.840Z,30.73
2023-03-20T16:07:05.697Z,30.56
2023-03-20T16:09:44.681Z,29.70
2023-03-20T16:12:17.658Z,29.93
2023-03-20T16:14:53.618Z,30.29
2023-03-20T16:17:24.982Z,29.92
2023-03-20T16:19:55.083Z,30.30
2023-03-20T16:22:27.060Z,29.89
2023-03-20T16:24:59.047Z,29.44
2023-03-20T16:27:30.147Z,29.57
2023-03-20T16:29:59.076Z,28.56
2023-03-20T16:32:35.855Z,29.35
2023-03-20T16:35:07.646Z,29.91
2023-03-20T16:37:39.653Z,29.51
2023-03-20T16:40:18.241Z,29.92
2023-03-20T16:42:47.455Z,29.95
2023-03-20T16:45:24.223Z,30.21
2023-03-20T16:48:09.660Z,30.27
2023-03-20T16:50:40.900Z,30.44
2023-03-20T16:53:11.714Z,30.45
2023-03-20T16:55:45.020Z,30.46
2023-03-20T16:58:19.536Z,30.49
2023-03-20T17:00:51.128Z,30.45
2023-03-20T17:03:30.534Z,30.72
2023-03-20T17:06:02.884Z,30.73
2023-03-20T17:08:39.278Z,30.58
2023-03-20T17:11:13.629Z,31.17
2023-03-20T17:13:43.394Z,31.01
2023-03-20T17:16:21.743Z,30.94
2023-03-20T17:19:02.640Z,30.97
2023-03-20T17:21:31.950Z,31.35
2023-03-20T17:24:00.882Z,31.36
2023-03-20T17:26:33.714Z,31.36
2023-03-20T17:29:02.641Z,31.44
2023-03-20T17:31:32.340Z,31.32
2023-03-20T17:34:01.274Z,31.43
2023-03-20T17:36:38.934Z,31.56
2023-03-20T17:39:07.689Z,31.56
2023-03-20T17:41:38.117Z,31.49
2023-03-20T17:44:07.288Z,31.92
2023-03-20T17:46:53.820Z,32.16
2023-03-20T17:49:28.573Z,32.17
2023-03-20T17:52:00.385Z,32.29
2023-03-20T17:54:28.981Z,32.32
2023-03-20T17:56:59.384Z,32.84
2023-03-20T17:59:31.353Z,32.94
2023-03-20T18:04:39.119Z,32.80
2023-03-20T18:07:09.499Z,31.89
2023-03-20T18:09:38.335Z,31.09
2023-03-20T18:12:13.613Z,30.88
2023-03-20T18:14:45.326Z,31.08
2023-03-20T18:17:15.805Z,30.98
2023-03-20T18:19:45.867Z,31.28
2023-03-20T18:22:34.618Z,31.60
2023-03-20T18:25:05.171Z,31.59
2023-03-20T18:27:36.303Z,31.35
2023-03-20T18:30:12.738Z,31.21
2023-03-20T18:32:43.116Z,31.07
2023-03-20T18:35:12.563Z,31.24
2023-03-20T18:37:41.378Z,31.06
2023-03-20T18:40:12.618Z,31.41
2023-03-20T18:42:42.411Z,31.36
2023-03-20T18:45:11.016Z,31.39
2023-03-20T18:47:39.640Z,31.31
2023-03-20T18:50:08.432Z,31.37
2023-03-20T18:52:38.516Z,31.33
2023-03-20T18:55:06.716Z,30.91
2023-03-20T18:57:36.670Z,30.65
2023-03-20T19:00:07.594Z,30.74
2023-03-20T19:02:36.016Z,30.68
2023-03-20T19:05:04.535Z,30.68
2023-03-20T19:07:32.883Z,30.56
2023-03-20T19:10:00.851Z,30.61
2023-03-20T19:12:29.144Z,30.43
2023-03-20T19:14:57.257Z,30.32
2023-03-20T19:17:26.987Z,30.19
2023-03-20T19:19:55.002Z,30.27
2023-03-20T19:22:29.676Z,30.12
2023-03-20T19:24:58.011Z,30.02
2023-03-20T19:27:26.314Z,30.16
2023-03-20T19:29:57.196Z,30.61
2023-03-20T19:32:26.961Z,30.69
2023-03-20T19:35:40.919Z,30.66
2023-03-20T19:37:43.699Z,30.58
2023-03-20T19:40:12.886Z,30.70
2023-03-20T19:43:01.660Z,30.43
2023-03-20T19:45:29.873Z,30.47
2023-03-20T19:47:59.885Z,30.24
2023-03-20T19:50:30.340Z,30.19
2023-03-20T19:52:59.175Z,30.06
2023-03-20T19:55:27.882Z,29.94
2023-03-20T19:57:57.274Z,29.91
2023-03-20T20:00:56.396Z,29.92
2023-03-20T20:03:18.219Z,30.07
2023-03-20T20:05:46.530Z,30.32
2023-03-20T20:08:28.315Z,30.27
2023-03-20T20:10:58.107Z,30.27
2023-03-20T20:13:27.797Z,30.54
2023-03-20T20:15:55.818Z,30.39
2023-03-20T20:18:26.259Z,30.50
2023-03-20T20:21:39.451Z,30.59
2023-03-20T20:23:44.127Z,30.38
2023-03-20T20:26:12.135Z,30.60
2023-03-20T20:28:40.432Z,30.79
2023-03-20T20:31:08.585Z,30.62
2023-03-20T20:33:39.549Z,30.61
2023-03-20T20:37:01.865Z,30.35
2023-03-20T20:39:00.209Z,30.43
2023-03-20T20:41:29.389Z,30.57
2023-03-20T20:44:15.294Z,30.51
2023-03-20T20:46:44.705Z,30.63
2023-03-20T20:49:19.537Z,30.73
2023-03-20T20:51:48.405Z,30.38
2023-03-20T20:54:16.584Z,30.61
2023-03-20T20:56:44.954Z,30.49
2023-03-20T20:59:13.171Z,30.57
2023-03-20T21:01:41.719Z,30.21
2023-03-20T21:04:11.522Z,30.24
2023-03-20T21:07:08.051Z,30.58
2023-03-20T21:09:29.820Z,30.78
2023-03-20T21:11:58.125Z,31.00
2023-03-20T21:14:26.355Z,31.09
2023-03-20T21:16:57.314Z,31.06
2023-03-20T21:19:25.724Z,31.10
2023-03-20T21:21:55.604Z,30.92
2023-03-20T21:24:32.032Z,30.88
2023-03-20T21:27:01.393Z,31.04
2023-03-20T21:29:29.601Z,31.11
2023-03-20T21:31:58.032Z,31.33
2023-03-20T21:34:26.203Z,31.53
2023-03-20T21:36:57.263Z,31.84
2023-03-20T21:39:25.492Z,31.94
2023-03-20T21:41:53.711Z,32.41
2023-03-20T21:45:01.035Z,32.61
2023-03-20T21:47:58.617Z,33.19
2023-03-20T21:50:41.808Z,33.09
2023-03-20T21:53:34.177Z,33.20
2023-03-20T21:59:03.610Z,33.75
2023-03-20T22:04:54.909Z,33.94
2023-03-20T22:07:32.958Z,33.80
2023-03-20T22:10:18.340Z,34.07
2023-03-20T22:13:14.285Z,34.03
2023-03-20T22:15:54.165Z,34.14
2023-03-20T22:24:37.587Z,33.74
2023-03-20T22:30:04.738Z,34.11
2023-03-20T22:32:48.546Z,34.50
2023-03-20T22:35:51.656Z,34.23
2023-03-20T22:38:41.608Z,34.47
2023-03-20T22:46:41.873Z,16.69
2023-03-20T22:48:59.008Z,17.03
2023-03-20T22:51:34.174Z,17.22
2023-03-20T22:54:04.506Z,16.84
2023-03-20T22:56:32.989Z,17.26
2023-03-20T22:59:01.610Z,17.14
2023-03-20T23:01:31.405Z,16.90
2023-03-20T23:03:59.966Z,17.16
2023-03-20T23:06:28.655Z,17.13
2023-03-20T23:09:03.128Z,17.10
2023-03-20T23:11:34.108Z,17.06
2023-03-20T23:14:08.696Z,17.19
2023-03-20T23:16:41.789Z,16.94
2023-03-20T23:19:10.532Z,17.03
2023-03-20T23:21:41.560Z,16.43
2023-03-20T23:24:10.432Z,16.91
2023-03-20T23:26:38.827Z,16.99
2023-03-20T23:29:07.497Z,17.03
2023-03-20T23:31:35.882Z,17.02
2023-03-20T23:34:05.944Z,16.63
2023-03-20T23:36:37.243Z,17.02
2023-03-20T23:39:07.967Z,17.12
2023-03-20T23:42:04.716Z,17.22
2023-03-20T23:44:25.220Z,17.12
2023-03-20T23:46:54.828Z,17.12
2023-03-20T23:49:24.876Z,17.01
2023-03-20T23:51:53.327Z,17.23
2023-03-20T23:54:21.971Z,17.26
2023-03-20T23:56:50.765Z,17.42
2023-03-20T23:59:21.945Z,17.23
